sensor_id;sensor_type;location;lat;lon;timestamp;pressure;altitude;pressure_sealevel;temperature;humidity
35519;BME280;21627;48.216;16.482;2023-02-11T00:01:35;101760.28;;;0.41;67.85
35519;BME280;21627;48.216;16.482;2023-02-11T00:04:05;101768.72;;;0.40;67.81
35519;BME280;21627;48.216;16.482;2023-02-11T00:06:34;101755.44;;;0.33;68.02
35519;BME280;21627;48.216;16.482;2023-02-11T00:09:03;101753.31;;;0.39;67.54
35519;BME280;21627;48.216;16.482;2023-02-11T00:11:33;101747.88;;;0.34;67.68
35519;BME280;21627;48.216;16.482;2023-02-11T00:14:04;101751.63;;;0.28;67.73
35519;BME280;21627;48.216;16.482;2023-02-11T00:16:32;101740.16;;;0.21;67.87
35519;BME280;21627;48.216;16.482;2023-02-11T00:19:00;101738.13;;;0.17;67.78
35519;BME280;21627;48.216;16.482;2023-02-11T00:21:28;101754.75;;;0.24;68.32
35519;BME280;21627;48.216;16.482;2023-02-11T00:23:56;101743.22;;;0.17;68.46
35519;BME280;21627;48.216;16.482;2023-02-11T00:26:29;101757.97;;;0.33;67.44
35519;BME280;21627;48.216;16.482;2023-02-11T00:29:01;101766.03;;;0.27;68.42
35519;BME280;21627;48.216;16.482;2023-02-11T00:31:28;101754.63;;;0.22;68.62
35519;BME280;21627;48.216;16.482;2023-02-11T00:33:56;101769.38;;;0.38;67.69
35519;BME280;21627;48.216;16.482;2023-02-11T00:36:26;101766.03;;;0.27;67.91
35519;BME280;21627;48.216;16.482;2023-02-11T00:38:55;101758.03;;;0.22;67.98
35519;BME280;21627;48.216;16.482;2023-02-11T00:41:23;101764.34;;;0.28;68.29
35519;BME280;21627;48.216;16.482;2023-02-11T00:43:50;101765.69;;;0.22;68.19
35519;BME280;21627;48.216;16.482;2023-02-11T00:46:18;101744.66;;;0.13;68.83
35519;BME280;21627;48.216;16.482;2023-02-11T00:48:45;101753.19;;;0.14;68.65
35519;BME280;21627;48.216;16.482;2023-02-11T00:51:13;101759.34;;;0.17;69.22
35519;BME280;21627;48.216;16.482;2023-02-11T00:53:40;101749.94;;;0.05;69.04
35519;BME280;21627;48.216;16.482;2023-02-11T00:56:07;101748.63;;;-0.02;69.65
35519;BME280;21627;48.216;16.482;2023-02-11T00:58:35;101747.47;;;-0.06;69.95
35519;BME280;21627;48.216;16.482;2023-02-11T01:01:06;101752.47;;;-0.07;70.50
35519;BME280;21627;48.216;16.482;2023-02-11T01:03:34;101754.88;;;-0.09;70.32
35519;BME280;21627;48.216;16.482;2023-02-11T01:06:01;101737.06;;;-0.20;70.42
35519;BME280;21627;48.216;16.482;2023-02-11T01:08:28;101762.16;;;-0.13;70.67
35519;BME280;21627;48.216;16.482;2023-02-11T01:11:02;101754.19;;;-0.18;71.13
35519;BME280;21627;48.216;16.482;2023-02-11T01:13:35;101756.63;;;-0.19;71.12
35519;BME280;21627;48.216;16.482;2023-02-11T01:16:06;101752.09;;;-0.24;70.98
35519;BME280;21627;48.216;16.482;2023-02-11T01:18:34;101741.47;;;-0.30;71.57
35519;BME280;21627;48.216;16.482;2023-02-11T01:21:01;101741.09;;;-0.34;71.98
35519;BME280;21627;48.216;16.482;2023-02-11T01:23:29;101734.13;;;-0.37;71.78
35519;BME280;21627;48.216;16.482;2023-02-11T01:25:56;101728.25;;;-0.48;72.16
35519;BME280;21627;48.216;16.482;2023-02-11T01:28:26;101736.53;;;-0.50;72.53
35519;BME280;21627;48.216;16.482;2023-02-11T01:30:54;101736.41;;;-0.52;72.83
35519;BME280;21627;48.216;16.482;2023-02-11T01:33:22;101746.78;;;-0.49;72.46
35519;BME280;21627;48.216;16.482;2023-02-11T01:35:50;101735.75;;;-0.49;72.63
35519;BME280;21627;48.216;16.482;2023-02-11T01:38:24;101725.94;;;-0.67;72.92
35519;BME280;21627;48.216;16.482;2023-02-11T01:40:58;101724.47;;;-0.75;73.45
35519;BME280;21627;48.216;16.482;2023-02-11T01:43:28;101740.47;;;-0.76;73.83
35519;BME280;21627;48.216;16.482;2023-02-11T01:48:58;101721.69;;;-1.00;74.83
35519;BME280;21627;48.216;16.482;2023-02-11T01:51:36;101721.97;;;-1.07;75.62
35519;BME280;21627;48.216;16.482;2023-02-11T01:54:06;101723.41;;;-1.11;75.75
35519;BME280;21627;48.216;16.482;2023-02-11T01:56:56;101716.16;;;-1.16;76.49
35519;BME280;21627;48.216;16.482;2023-02-11T02:00:19;101707.94;;;-1.24;76.38
35519;BME280;21627;48.216;16.482;2023-02-11T02:03:24;101714.06;;;-1.32;76.95
35519;BME280;21627;48.216;16.482;2023-02-11T02:06:05;101692.94;;;-1.43;77.16
35519;BME280;21627;48.216;16.482;2023-02-11T02:11:10;101711.84;;;-1.49;78.06
35519;BME280;21627;48.216;16.482;2023-02-11T02:13:38;101695.53;;;-1.63;78.16
35519;BME280;21627;48.216;16.482;2023-02-11T02:16:13;101703.25;;;-1.62;78.84
35519;BME280;21627;48.216;16.482;2023-02-11T02:36:18;101669.78;;;-2.10;82.01
35519;BME280;21627;48.216;16.482;2023-02-11T02:39:11;101676.50;;;-2.11;82.72
35519;BME280;21627;48.216;16.482;2023-02-11T02:41:40;101663.06;;;-2.20;82.67
35519;BME280;21627;48.216;16.482;2023-02-11T02:44:08;101651.28;;;-2.30;83.15
35519;BME280;21627;48.216;16.482;2023-02-11T02:46:35;101662.19;;;-2.21;84.58
35519;BME280;21627;48.216;16.482;2023-02-11T02:49:09;101637.25;;;-2.36;85.36
35519;BME280;21627;48.216;16.482;2023-02-11T02:54:59;101644.22;;;-2.34;86.02
35519;BME280;21627;48.216;16.482;2023-02-11T03:00:37;101635.06;;;-2.42;87.45
35519;BME280;21627;48.216;16.482;2023-02-11T03:03:42;101645.22;;;-2.42;88.21
35519;BME280;21627;48.216;16.482;2023-02-11T03:06:28;101645.97;;;-2.43;88.35
35519;BME280;21627;48.216;16.482;2023-02-11T03:09:07;101648.50;;;-2.43;88.67
35519;BME280;21627;48.216;16.482;2023-02-11T03:11:38;101624.59;;;-2.57;88.50
35519;BME280;21627;48.216;16.482;2023-02-11T03:14:09;101640.03;;;-2.54;89.12
35519;BME280;21627;48.216;16.482;2023-02-11T03:16:37;101621.53;;;-2.63;89.12
35519;BME280;21627;48.216;16.482;2023-02-11T03:19:22;101620.53;;;-2.65;89.64
35519;BME280;21627;48.216;16.482;2023-02-11T03:21:52;101637.59;;;-2.63;89.72
35519;BME280;21627;48.216;16.482;2023-02-11T03:24:33;101629.78;;;-2.66;90.35
35519;BME280;21627;48.216;16.482;2023-02-11T03:27:56;101628.75;;;-2.68;90.96
35519;BME280;21627;48.216;16.482;2023-02-11T03:30:44;101603.19;;;-2.81;91.57
35519;BME280;21627;48.216;16.482;2023-02-11T03:33:27;101604.06;;;-2.80;92.29
35519;BME280;21627;48.216;16.482;2023-02-11T03:36:01;101607.47;;;-2.70;93.20
35519;BME280;21627;48.216;16.482;2023-02-11T03:38:41;101608.50;;;-2.68;94.79
35519;BME280;21627;48.216;16.482;2023-02-11T03:41:13;101609.13;;;-2.60;94.76
35519;BME280;21627;48.216;16.482;2023-02-11T03:43:49;101615.34;;;-2.56;95.66
35519;BME280;21627;48.216;16.482;2023-02-11T03:46:31;101602.78;;;-2.55;96.34
35519;BME280;21627;48.216;16.482;2023-02-11T03:49:08;101598.72;;;-2.43;96.90
35519;BME280;21627;48.216;16.482;2023-02-11T03:51:41;101589.84;;;-2.37;97.49
35519;BME280;21627;48.216;16.482;2023-02-11T03:54:13;101590.75;;;-2.27;97.42
35519;BME280;21627;48.216;16.482;2023-02-11T03:56:54;101568.94;;;-2.25;97.29
35519;BME280;21627;48.216;16.482;2023-02-11T03:59:22;101566.41;;;-2.25;97.30
35519;BME280;21627;48.216;16.482;2023-02-11T04:01:49;101578.81;;;-2.18;96.92
35519;BME280;21627;48.216;16.482;2023-02-11T04:04:17;101577.28;;;-2.15;96.96
35519;BME280;21627;48.216;16.482;2023-02-11T04:06:44;101562.72;;;-2.18;97.11
35519;BME280;21627;48.216;16.482;2023-02-11T04:09:12;101565.09;;;-2.09;98.51
35519;BME280;21627;48.216;16.482;2023-02-11T04:11:39;101560.28;;;-2.06;98.37
35519;BME280;21627;48.216;16.482;2023-02-11T04:14:06;101564.44;;;-2.07;98.19
35519;BME280;21627;48.216;16.482;2023-02-11T04:16:33;101572.88;;;-1.86;98.44
35519;BME280;21627;48.216;16.482;2023-02-11T04:19:00;101589.34;;;-1.81;97.57
35519;BME280;21627;48.216;16.482;2023-02-11T04:21:28;101573.25;;;-1.81;96.75
35519;BME280;21627;48.216;16.482;2023-02-11T04:23:55;101584.16;;;-1.82;96.36
35519;BME280;21627;48.216;16.482;2023-02-11T04:26:22;101583.78;;;-1.87;97.06
35519;BME280;21627;48.216;16.482;2023-02-11T04:28:49;101587.22;;;-1.86;96.76
35519;BME280;21627;48.216;16.482;2023-02-11T04:31:17;101575.19;;;-1.99;96.38
35519;BME280;21627;48.216;16.482;2023-02-11T04:33:44;101580.25;;;-1.99;97.00
35519;BME280;21627;48.216;16.482;2023-02-11T04:36:11;101579.28;;;-2.01;96.92
35519;BME280;21627;48.216;16.482;2023-02-11T04:38:42;101567.91;;;-2.06;97.10
35519;BME280;21627;48.216;16.482;2023-02-11T04:41:09;101553.97;;;-2.11;98.06
35519;BME280;21627;48.216;16.482;2023-02-11T04:43:36;101579.75;;;-1.95;98.07
35519;BME280;21627;48.216;16.482;2023-02-11T04:46:04;101566.72;;;-2.00;97.07
35519;BME280;21627;48.216;16.482;2023-02-11T04:48:31;101553.34;;;-2.09;97.93
35519;BME280;21627;48.216;16.482;2023-02-11T04:50:58;101549.00;;;-2.10;98.17
35519;BME280;21627;48.216;16.482;2023-02-11T04:53:25;101539.50;;;-2.12;98.28
35519;BME280;21627;48.216;16.482;2023-02-11T04:55:52;101562.28;;;-2.02;98.67
35519;BME280;21627;48.216;16.482;2023-02-11T04:58:20;101564.41;;;-1.86;99.26
35519;BME280;21627;48.216;16.482;2023-02-11T05:00:47;101566.63;;;-1.79;100.00
35519;BME280;21627;48.216;16.482;2023-02-11T05:03:15;101562.88;;;-1.62;100.00
35519;BME280;21627;48.216;16.482;2023-02-11T05:05:42;101564.84;;;-1.48;100.00
35519;BME280;21627;48.216;16.482;2023-02-11T05:08:10;101560.19;;;-1.32;100.00
35519;BME280;21627;48.216;16.482;2023-02-11T05:10:45;101553.16;;;-1.24;99.75
35519;BME280;21627;48.216;16.482;2023-02-11T05:13:13;101557.75;;;-1.08;99.35
35519;BME280;21627;48.216;16.482;2023-02-11T05:15:40;101561.66;;;-0.90;98.78
35519;BME280;21627;48.216;16.482;2023-02-11T05:18:07;101567.53;;;-0.79;97.74
35519;BME280;21627;48.216;16.482;2023-02-11T05:20:37;101558.09;;;-0.58;95.65
35519;BME280;21627;48.216;16.482;2023-02-11T05:23:05;101559.22;;;-0.42;94.60
35519;BME280;21627;48.216;16.482;2023-02-11T05:25:32;101551.38;;;-0.22;92.41
35519;BME280;21627;48.216;16.482;2023-02-11T05:28:00;101565.88;;;-0.09;91.65
35519;BME280;21627;48.216;16.482;2023-02-11T05:30:27;101564.53;;;0.08;89.21
35519;BME280;21627;48.216;16.482;2023-02-11T05:32:55;101555.66;;;0.14;88.86
35519;BME280;21627;48.216;16.482;2023-02-11T05:35:23;101550.50;;;0.13;88.44
35519;BME280;21627;48.216;16.482;2023-02-11T05:37:50;101557.28;;;0.37;87.00
35519;BME280;21627;48.216;16.482;2023-02-11T05:40:20;101551.16;;;0.47;85.27
35519;BME280;21627;48.216;16.482;2023-02-11T05:42:48;101548.31;;;0.42;84.25
35519;BME280;21627;48.216;16.482;2023-02-11T05:45:15;101552.28;;;0.51;83.89
35519;BME280;21627;48.216;16.482;2023-02-11T05:47:43;101538.31;;;0.57;83.24
35519;BME280;21627;48.216;16.482;2023-02-11T05:50:10;101532.63;;;0.73;81.00
35519;BME280;21627;48.216;16.482;2023-02-11T05:52:37;101530.34;;;0.78;80.03
35519;BME280;21627;48.216;16.482;2023-02-11T05:55:05;101538.13;;;0.79;80.94
35519;BME280;21627;48.216;16.482;2023-02-11T05:57:32;101534.34;;;0.86;79.20
35519;BME280;21627;48.216;16.482;2023-02-11T05:59:59;101527.59;;;1.00;78.25
35519;BME280;21627;48.216;16.482;2023-02-11T06:02:30;101513.56;;;0.93;78.22
35519;BME280;21627;48.216;16.482;2023-02-11T06:04:57;101520.25;;;0.91;78.72
35519;BME280;21627;48.216;16.482;2023-02-11T06:07:24;101516.03;;;0.92;79.08
35519;BME280;21627;48.216;16.482;2023-02-11T06:09:51;101507.22;;;1.00;77.65
35519;BME280;21627;48.216;16.482;2023-02-11T06:12:18;101507.66;;;1.06;77.93
35519;BME280;21627;48.216;16.482;2023-02-11T06:14:46;101504.44;;;1.08;77.01
35519;BME280;21627;48.216;16.482;2023-02-11T06:17:13;101483.22;;;0.96;77.66
35519;BME280;21627;48.216;16.482;2023-02-11T06:19:41;101486.09;;;1.01;77.27
35519;BME280;21627;48.216;16.482;2023-02-11T06:22:09;101477.59;;;1.14;76.79
35519;BME280;21627;48.216;16.482;2023-02-11T06:24:36;101471.72;;;1.28;74.93
35519;BME280;21627;48.216;16.482;2023-02-11T06:27:30;101465.44;;;1.23;75.53
35519;BME280;21627;48.216;16.482;2023-02-11T06:29:57;101469.53;;;1.21;75.21
35519;BME280;21627;48.216;16.482;2023-02-11T06:32:26;101477.91;;;1.32;74.37
35519;BME280;21627;48.216;16.482;2023-02-11T06:35:13;101456.84;;;1.34;74.55
35519;BME280;21627;48.216;16.482;2023-02-11T06:37:41;101464.78;;;1.39;74.78
35519;BME280;21627;48.216;16.482;2023-02-11T06:40:10;101464.84;;;1.40;74.40
35519;BME280;21627;48.216;16.482;2023-02-11T06:42:38;101464.28;;;1.44;74.09
35519;BME280;21627;48.216;16.482;2023-02-11T06:45:07;101470.06;;;1.55;73.32
35519;BME280;21627;48.216;16.482;2023-02-11T06:47:37;101452.19;;;1.68;71.63
35519;BME280;21627;48.216;16.482;2023-02-11T06:50:07;101476.13;;;1.84;71.13
35519;BME280;21627;48.216;16.482;2023-02-11T06:52:35;101463.56;;;1.73;71.73
35519;BME280;21627;48.216;16.482;2023-02-11T06:55:03;101455.25;;;1.63;72.54
35519;BME280;21627;48.216;16.482;2023-02-11T06:57:31;101467.91;;;1.75;72.66
35519;BME280;21627;48.216;16.482;2023-02-11T06:59:58;101448.53;;;1.91;71.96
35519;BME280;21627;48.216;16.482;2023-02-11T07:02:26;101460.13;;;1.86;72.38
35519;BME280;21627;48.216;16.482;2023-02-11T07:04:53;101434.81;;;1.76;72.28
35519;BME280;21627;48.216;16.482;2023-02-11T07:07:20;101457.47;;;1.98;71.71
35519;BME280;21627;48.216;16.482;2023-02-11T07:09:47;101456.25;;;2.20;70.37
35519;BME280;21627;48.216;16.482;2023-02-11T07:12:14;101456.28;;;2.34;69.61
35519;BME280;21627;48.216;16.482;2023-02-11T07:14:42;101444.94;;;2.44;67.75
35519;BME280;21627;48.216;16.482;2023-02-11T07:17:12;101454.56;;;2.48;67.67
35519;BME280;21627;48.216;16.482;2023-02-11T07:19:40;101449.97;;;2.43;68.04
35519;BME280;21627;48.216;16.482;2023-02-11T07:22:07;101442.91;;;2.38;68.22
35519;BME280;21627;48.216;16.482;2023-02-11T07:24:35;101455.19;;;2.59;66.60
35519;BME280;21627;48.216;16.482;2023-02-11T07:27:02;101444.28;;;2.62;66.22
35519;BME280;21627;48.216;16.482;2023-02-11T07:29:29;101452.50;;;2.71;66.20
35519;BME280;21627;48.216;16.482;2023-02-11T07:31:56;101446.25;;;2.80;66.12
35519;BME280;21627;48.216;16.482;2023-02-11T07:34:23;101443.16;;;2.86;64.69
35519;BME280;21627;48.216;16.482;2023-02-11T07:36:54;101442.19;;;2.99;64.30
35519;BME280;21627;48.216;16.482;2023-02-11T07:39:21;101433.13;;;3.04;63.79
35519;BME280;21627;48.216;16.482;2023-02-11T07:41:53;101432.84;;;3.14;63.93
35519;BME280;21627;48.216;16.482;2023-02-11T07:44:21;101439.53;;;3.12;63.44
35519;BME280;21627;48.216;16.482;2023-02-11T07:46:48;101454.09;;;3.28;62.79
35519;BME280;21627;48.216;16.482;2023-02-11T07:49:16;101448.00;;;3.41;62.31
35519;BME280;21627;48.216;16.482;2023-02-11T07:51:43;101443.47;;;3.52;61.18
35519;BME280;21627;48.216;16.482;2023-02-11T07:54:12;101449.81;;;3.58;60.23
35519;BME280;21627;48.216;16.482;2023-02-11T07:56:39;101463.59;;;3.60;60.84
35519;BME280;21627;48.216;16.482;2023-02-11T07:59:06;101481.19;;;3.71;60.84
35519;BME280;21627;48.216;16.482;2023-02-11T08:01:33;101486.66;;;3.62;60.83
35519;BME280;21627;48.216;16.482;2023-02-11T08:04:02;101479.06;;;3.78;59.17
35519;BME280;21627;48.216;16.482;2023-02-11T08:06:32;101493.16;;;3.86;59.24
35519;BME280;21627;48.216;16.482;2023-02-11T08:09:07;101468.53;;;3.88;58.50
35519;BME280;21627;48.216;16.482;2023-02-11T08:11:35;101480.72;;;4.09;56.87
35519;BME280;21627;48.216;16.482;2023-02-11T08:14:03;101481.59;;;4.09;57.77
35519;BME280;21627;48.216;16.482;2023-02-11T08:16:34;101479.03;;;4.09;56.92
35519;BME280;21627;48.216;16.482;2023-02-11T08:19:06;101463.13;;;4.15;57.38
35519;BME280;21627;48.216;16.482;2023-02-11T08:21:34;101445.16;;;4.14;56.24
35519;BME280;21627;48.216;16.482;2023-02-11T08:24:05;101463.00;;;4.28;56.56
35519;BME280;21627;48.216;16.482;2023-02-11T08:26:36;101444.09;;;4.26;55.49
35519;BME280;21627;48.216;16.482;2023-02-11T08:29:12;101451.31;;;4.33;55.83
35519;BME280;21627;48.216;16.482;2023-02-11T08:31:44;101436.09;;;4.37;54.95
35519;BME280;21627;48.216;16.482;2023-02-11T08:34:14;101427.47;;;4.34;55.31
35519;BME280;21627;48.216;16.482;2023-02-11T08:36:46;101441.38;;;4.40;55.62
35519;BME280;21627;48.216;16.482;2023-02-11T08:39:21;101435.06;;;4.33;55.21
35519;BME280;21627;48.216;16.482;2023-02-11T08:41:53;101445.78;;;4.42;54.03
35519;BME280;21627;48.216;16.482;2023-02-11T08:44:24;101447.63;;;4.45;54.60
35519;BME280;21627;48.216;16.482;2023-02-11T08:46:52;101444.91;;;4.42;53.96
35519;BME280;21627;48.216;16.482;2023-02-11T08:49:20;101458.09;;;4.49;54.49
35519;BME280;21627;48.216;16.482;2023-02-11T08:51:48;101454.06;;;4.71;59.56
35519;BME280;21627;48.216;16.482;2023-02-11T08:54:16;101440.91;;;4.97;54.99
35519;BME280;21627;48.216;16.482;2023-02-11T08:56:45;101445.09;;;5.13;53.30
35519;BME280;21627;48.216;16.482;2023-02-11T08:59:14;101448.25;;;5.26;52.96
35519;BME280;21627;48.216;16.482;2023-02-11T09:01:43;101440.72;;;5.29;52.78
35519;BME280;21627;48.216;16.482;2023-02-11T09:04:10;101445.84;;;5.29;52.26
35519;BME280;21627;48.216;16.482;2023-02-11T09:06:38;101450.31;;;5.33;52.12
35519;BME280;21627;48.216;16.482;2023-02-11T09:09:05;101453.41;;;5.26;52.83
35519;BME280;21627;48.216;16.482;2023-02-11T09:11:39;101441.16;;;5.20;52.18
35519;BME280;21627;48.216;16.482;2023-02-11T09:14:07;101428.34;;;5.20;52.03
35519;BME280;21627;48.216;16.482;2023-02-11T09:16:42;101440.19;;;5.18;52.32
35519;BME280;21627;48.216;16.482;2023-02-11T09:19:10;101442.75;;;5.18;52.84
35519;BME280;21627;48.216;16.482;2023-02-11T09:21:37;101451.78;;;5.28;52.35
35519;BME280;21627;48.216;16.482;2023-02-11T09:24:05;101454.63;;;5.34;52.54
35519;BME280;21627;48.216;16.482;2023-02-11T09:26:37;101446.56;;;5.44;52.26
35519;BME280;21627;48.216;16.482;2023-02-11T09:29:05;101438.38;;;5.51;53.04
35519;BME280;21627;48.216;16.482;2023-02-11T09:31:33;101436.53;;;5.67;52.09
35519;BME280;21627;48.216;16.482;2023-02-11T09:34:05;101420.97;;;5.81;51.60
35519;BME280;21627;48.216;16.482;2023-02-11T09:36:37;101426.91;;;5.98;50.25
35519;BME280;21627;48.216;16.482;2023-02-11T09:39:16;101426.31;;;5.86;50.73
35519;BME280;21627;48.216;16.482;2023-02-11T09:44:35;101427.75;;;5.97;50.79
35519;BME280;21627;48.216;16.482;2023-02-11T09:47:35;101418.00;;;5.92;51.58
35519;BME280;21627;48.216;16.482;2023-02-11T09:50:17;101424.84;;;5.91;50.36
35519;BME280;21627;48.216;16.482;2023-02-11T09:55:40;101410.69;;;5.99;50.50
35519;BME280;21627;48.216;16.482;2023-02-11T10:04:00;101407.59;;;6.26;50.32
35519;BME280;21627;48.216;16.482;2023-02-11T10:07:24;101416.13;;;6.25;50.27
35519;BME280;21627;48.216;16.482;2023-02-11T10:12:31;101406.47;;;6.60;51.12
35519;BME280;21627;48.216;16.482;2023-02-11T10:18:06;101401.19;;;7.18;49.39
35519;BME280;21627;48.216;16.482;2023-02-11T10:21:11;101384.41;;;7.49;47.88
35519;BME280;21627;48.216;16.482;2023-02-11T10:23:47;101381.88;;;7.50;47.23
35519;BME280;21627;48.216;16.482;2023-02-11T10:26:19;101375.44;;;7.39;47.61
35519;BME280;21627;48.216;16.482;2023-02-11T10:28:52;101363.41;;;7.17;47.77
35519;BME280;21627;48.216;16.482;2023-02-11T10:31:24;101384.69;;;7.13;47.76
35519;BME280;21627;48.216;16.482;2023-02-11T10:34:13;101379.00;;;6.99;48.23
35519;BME280;21627;48.216;16.482;2023-02-11T10:36:43;101376.91;;;7.11;48.18
35519;BME280;21627;48.216;16.482;2023-02-11T10:39:22;101371.31;;;7.22;46.96
35519;BME280;21627;48.216;16.482;2023-02-11T10:42:20;101369.56;;;7.43;47.27
35519;BME280;21627;48.216;16.482;2023-02-11T10:44:59;101368.88;;;7.47;46.68
35519;BME280;21627;48.216;16.482;2023-02-11T10:47:34;101373.69;;;7.61;46.60
35519;BME280;21627;48.216;16.482;2023-02-11T10:50:27;101363.63;;;7.67;45.20
35519;BME280;21627;48.216;16.482;2023-02-11T10:53:17;101374.09;;;7.71;46.40
35519;BME280;21627;48.216;16.482;2023-02-11T10:55:55;101368.41;;;7.80;45.77
35519;BME280;21627;48.216;16.482;2023-02-11T10:58:39;101349.19;;;7.94;45.86
35519;BME280;21627;48.216;16.482;2023-02-11T11:01:07;101344.50;;;8.07;45.49
35519;BME280;21627;48.216;16.482;2023-02-11T11:03:53;101343.56;;;8.05;44.95
35519;BME280;21627;48.216;16.482;2023-02-11T11:06:31;101327.00;;;7.98;45.13
35519;BME280;21627;48.216;16.482;2023-02-11T11:08:59;101321.50;;;8.13;44.94
35519;BME280;21627;48.216;16.482;2023-02-11T11:11:27;101336.50;;;8.49;45.02
35519;BME280;21627;48.216;16.482;2023-02-11T11:13:59;101331.00;;;8.63;43.94
35519;BME280;21627;48.216;16.482;2023-02-11T11:16:32;101325.84;;;8.63;44.03
35519;BME280;21627;48.216;16.482;2023-02-11T11:21:46;101307.78;;;8.38;43.54
35519;BME280;21627;48.216;16.482;2023-02-11T11:24:28;101305.41;;;8.44;43.66
35519;BME280;21627;48.216;16.482;2023-02-11T11:27:00;101309.50;;;8.13;42.89
35519;BME280;21627;48.216;16.482;2023-02-11T11:29:50;101286.81;;;8.03;43.43
35519;BME280;21627;48.216;16.482;2023-02-11T11:32:26;101300.13;;;8.15;43.30
35519;BME280;21627;48.216;16.482;2023-02-11T11:35:04;101278.94;;;7.98;43.72
35519;BME280;21627;48.216;16.482;2023-02-11T11:37:36;101278.28;;;8.04;43.10
35519;BME280;21627;48.216;16.482;2023-02-11T11:40:25;101263.38;;;7.95;43.43
35519;BME280;21627;48.216;16.482;2023-02-11T11:45:39;101263.09;;;7.88;43.62
35519;BME280;21627;48.216;16.482;2023-02-11T11:48:30;101257.03;;;7.86;44.63
35519;BME280;21627;48.216;16.482;2023-02-11T11:51:03;101254.41;;;7.84;44.15
35519;BME280;21627;48.216;16.482;2023-02-11T11:56:22;101247.66;;;7.88;44.19
35519;BME280;21627;48.216;16.482;2023-02-11T11:58:50;101246.94;;;7.92;43.93
35519;BME280;21627;48.216;16.482;2023-02-11T12:01:50;101242.72;;;7.94;44.46
35519;BME280;21627;48.216;16.482;2023-02-11T12:08:07;101217.38;;;8.06;42.91
35519;BME280;21627;48.216;16.482;2023-02-11T12:19:49;101211.31;;;8.04;43.16
35519;BME280;21627;48.216;16.482;2023-02-11T12:22:46;101212.03;;;8.00;43.34
35519;BME280;21627;48.216;16.482;2023-02-11T12:25:47;101208.69;;;8.02;43.48
35519;BME280;21627;48.216;16.482;2023-02-11T12:54:59;101187.13;;;7.51;43.78
35519;BME280;21627;48.216;16.482;2023-02-11T12:57:31;101194.75;;;7.48;44.30
35519;BME280;21627;48.216;16.482;2023-02-11T13:00:47;101203.06;;;7.41;43.28
35519;BME280;21627;48.216;16.482;2023-02-11T13:06:13;101209.81;;;7.37;43.46
35519;BME280;21627;48.216;16.482;2023-02-11T13:08:51;101196.84;;;7.34;43.22
35519;BME280;21627;48.216;16.482;2023-02-11T13:11:54;101207.53;;;7.21;43.90
35519;BME280;21627;48.216;16.482;2023-02-11T13:14:30;101209.91;;;7.16;43.37
35519;BME280;21627;48.216;16.482;2023-02-11T13:17:13;101233.25;;;7.21;43.09
35519;BME280;21627;48.216;16.482;2023-02-11T13:19:52;101226.31;;;7.20;44.32
35519;BME280;21627;48.216;16.482;2023-02-11T13:22:49;101224.81;;;7.25;43.24
35519;BME280;21627;48.216;16.482;2023-02-11T13:28:34;101226.31;;;7.20;44.17
35519;BME280;21627;48.216;16.482;2023-02-11T13:31:03;101224.75;;;7.23;43.92
35519;BME280;21627;48.216;16.482;2023-02-11T13:33:39;101231.47;;;7.20;44.00
35519;BME280;21627;48.216;16.482;2023-02-11T13:36:11;101234.91;;;7.20;43.87
35519;BME280;21627;48.216;16.482;2023-02-11T13:38:40;101229.44;;;7.11;45.07
35519;BME280;21627;48.216;16.482;2023-02-11T13:41:33;101236.03;;;7.27;45.15
35519;BME280;21627;48.216;16.482;2023-02-11T13:47:05;101234.44;;;7.30;45.53
35519;BME280;21627;48.216;16.482;2023-02-11T13:49:40;101233.97;;;7.18;46.43
35519;BME280;21627;48.216;16.482;2023-02-11T13:52:36;101228.13;;;7.22;46.02
35519;BME280;21627;48.216;16.482;2023-02-11T13:55:20;101222.63;;;7.13;46.18
35519;BME280;21627;48.216;16.482;2023-02-11T14:00:49;101212.19;;;7.08;47.43
35519;BME280;21627;48.216;16.482;2023-02-11T14:03:36;101208.44;;;7.00;47.43
35519;BME280;21627;48.216;16.482;2023-02-11T14:06:28;101211.84;;;6.99;47.82
35519;BME280;21627;48.216;16.482;2023-02-11T14:11:49;101219.16;;;6.88;48.74
35519;BME280;21627;48.216;16.482;2023-02-11T14:14:30;101207.56;;;6.77;49.39
35519;BME280;21627;48.216;16.482;2023-02-11T14:19:42;101195.47;;;6.75;49.68
35519;BME280;21627;48.216;16.482;2023-02-11T14:22:18;101188.28;;;6.66;49.87
35519;BME280;21627;48.216;16.482;2023-02-11T14:25:00;101201.91;;;6.86;49.83
35519;BME280;21627;48.216;16.482;2023-02-11T14:30:28;101199.34;;;6.86;49.67
35519;BME280;21627;48.216;16.482;2023-02-11T14:33:22;101207.06;;;6.86;49.07
35519;BME280;21627;48.216;16.482;2023-02-11T14:39:27;101193.78;;;6.75;50.23
35519;BME280;21627;48.216;16.482;2023-02-11T14:42:00;101189.47;;;6.74;50.21
35519;BME280;21627;48.216;16.482;2023-02-11T14:44:30;101196.03;;;6.67;50.14
35519;BME280;21627;48.216;16.482;2023-02-11T14:46:59;101188.69;;;6.54;51.54
35519;BME280;21627;48.216;16.482;2023-02-11T14:49:36;101193.03;;;6.55;51.17
35519;BME280;21627;48.216;16.482;2023-02-11T14:52:33;101172.44;;;6.33;51.66
35519;BME280;21627;48.216;16.482;2023-02-11T14:58:17;101173.03;;;6.27;51.72
35519;BME280;21627;48.216;16.482;2023-02-11T15:01:02;101179.25;;;6.32;53.25
35519;BME280;21627;48.216;16.482;2023-02-11T15:03:40;101176.06;;;6.38;52.72
35519;BME280;21627;48.216;16.482;2023-02-11T15:06:22;101178.44;;;6.33;53.15
35519;BME280;21627;48.216;16.482;2023-02-11T15:09:15;101183.63;;;6.35;52.50
35519;BME280;21627;48.216;16.482;2023-02-11T15:11:43;101181.81;;;6.32;53.56
35519;BME280;21627;48.216;16.482;2023-02-11T15:14:31;101186.16;;;6.33;53.21
35519;BME280;21627;48.216;16.482;2023-02-11T15:17:06;101188.44;;;6.27;54.28
35519;BME280;21627;48.216;16.482;2023-02-11T15:19:45;101185.53;;;6.18;54.28
35519;BME280;21627;48.216;16.482;2023-02-11T15:22:28;101186.63;;;6.24;53.39